Time;durP1;ratioP1;P1;durP2;ratioP2;P2;SDS_P1;SDS_P2;PMS_P1;PMS_P2;Temp;Humidity;BMP_temperature;BMP_pressure;BME280_temperature;BME280_humidity;BME280_pressure;Samples;Min_cycle;Max_cycle;Signal;HPM_P1;HPM_P2
2021/10/01 00:00:23;;;;;;;;;3.50;2.50;;;;;;;;5040323;28;45565;-95
2021/10/01 00:02:48;;;;;;;;;3.00;2.75;;;;;;;;5041253;28;45319;-94
2021/10/01 00:05:14;;;;;;;;;3.00;1.00;;;;;;;;5034626;28;45595;-94
2021/10/01 00:07:39;;;;;;;;;2.00;2.00;;;;;;;;5037858;28;47865;-95
2021/10/01 00:10:04;;;;;;;;;2.25;1.00;;;;;;;;5040027;28;45372;-95
2021/10/01 00:12:30;;;;;;;;;1.25;1.25;;;;;;;;5040523;28;45259;-94
2021/10/01 00:14:56;;;;;;;;;3.00;1.00;;;;;;;;5040843;28;45687;-95
2021/10/01 00:17:22;;;;;;;;;2.00;2.00;;;;;;;;5045518;28;47160;-93
2021/10/01 00:19:47;;;;;;;;;2.75;2.75;;;;;;;;5050539;28;45287;-95
2021/10/01 00:22:12;;;;;;;;;1.25;1.25;;;;;;;;5048990;28;45303;-96
2021/10/01 00:24:38;;;;;;;;;1.50;1.50;;;;;;;;5047125;28;45659;-95
2021/10/01 00:27:08;;;;;;;;;3.00;3.00;;;;;;;;5046426;28;47034;-95
2021/10/01 00:29:33;;;;;;;;;3.00;1.00;;;;;;;;5047866;28;45458;-94
2021/10/01 00:31:59;;;;;;;;;2.50;2.00;;;;;;;;5047158;28;45351;-95
2021/10/01 00:34:24;;;;;;;;;4.75;2.25;;;;;;;;5047695;28;45384;-94
2021/10/01 00:36:49;;;;;;;;;4.33;1.67;;;;;;;;5049614;28;45441;-95
2021/10/01 00:39:14;;;;;;;;;2.00;2.00;;;;;;;;5048356;28;45301;-93
2021/10/01 00:41:40;;;;;;;;;2.25;2.00;;;;;;;;5048581;28;45269;-93
2021/10/01 00:44:06;;;;;;;;;4.00;2.00;;;;;;;;5048194;28;45485;-94
2021/10/01 00:46:31;;;;;;;;;1.25;1.25;;;;;;;;5047846;28;47966;-95
2021/10/01 00:48:57;;;;;;;;;3.00;2.00;;;;;;;;5047685;28;45330;-93
2021/10/01 00:51:23;;;;;;;;;2.00;1.25;;;;;;;;5048054;28;45234;-93
2021/10/01 00:53:48;;;;;;;;;4.00;2.75;;;;;;;;5046759;28;45570;-93
2021/10/01 00:56:14;;;;;;;;;2.25;2.00;;;;;;;;5052317;28;48075;-93
2021/10/01 00:58:39;;;;;;;;;2.00;1.00;;;;;;;;5048556;28;45624;-94
2021/10/01 01:03:34;;;;;;;;;1.00;1.00;;;;;;;;5049449;28;45163;-94
2021/10/01 01:06:10;;;;;;;;;2.25;1.00;;;;;;;;5047674;28;47280;-93
2021/10/01 01:08:42;;;;;;;;;4.00;1.00;;;;;;;;5048373;28;46023;-93
2021/10/01 01:11:15;;;;;;;;;6.00;2.00;;;;;;;;5050434;28;45324;-93
2021/10/01 01:13:47;;;;;;;;;3.25;2.50;;;;;;;;5051713;28;45517;-93
2021/10/01 01:16:17;;;;;;;;;1.00;1.00;;;;;;;;5053026;28;45460;-93
2021/10/01 01:18:47;;;;;;;;;4.50;1.75;;;;;;;;5051298;28;45339;-93
2021/10/01 01:21:17;;;;;;;;;1.75;1.00;;;;;;;;5050065;28;45262;-93
2021/10/01 01:23:55;;;;;;;;;2.25;1.50;;;;;;;;5048073;28;45844;-93
2021/10/01 01:26:39;;;;;;;;;2.00;2.00;;;;;;;;5047644;28;47381;-93
2021/10/01 01:29:10;;;;;;;;;3.00;1.75;;;;;;;;5047766;28;45410;-94
2021/10/01 01:31:39;;;;;;;;;2.25;2.00;;;;;;;;5047939;28;45381;-93
2021/10/01 01:34:05;;;;;;;;;2.50;1.00;;;;;;;;5039269;28;45299;-93
2021/10/01 01:36:31;;;;;;;;;0.50;0.00;;;;;;;;5064139;28;46944;-92
2021/10/01 01:38:58;;;;;;;;;2.75;1.00;;;;;;;;5065576;28;45313;-92
2021/10/01 01:41:24;;;;;;;;;6.00;1.00;;;;;;;;5066934;28;44739;-93
2021/10/01 01:43:51;;;;;;;;;2.25;2.25;;;;;;;;5066694;28;45099;-94
2021/10/01 01:46:16;;;;;;;;;2.50;1.75;;;;;;;;5065629;28;47142;-93
2021/10/01 01:48:43;;;;;;;;;4.00;1.00;;;;;;;;5032743;28;45427;-93
2021/10/01 01:51:09;;;;;;;;;2.00;2.00;;;;;;;;5046375;28;45426;-93
2021/10/01 01:53:35;;;;;;;;;5.00;2.00;;;;;;;;5043804;28;45504;-93
2021/10/01 01:56:01;;;;;;;;;3.00;1.00;;;;;;;;5042546;28;47267;-94
2021/10/01 01:58:27;;;;;;;;;3.25;1.25;;;;;;;;5043766;28;45804;-93
2021/10/01 02:00:53;;;;;;;;;4.75;2.00;;;;;;;;5047127;28;45248;-93
2021/10/01 02:03:18;;;;;;;;;1.25;1.25;;;;;;;;5043506;28;45489;-94
2021/10/01 02:05:47;;;;;;;;;2.00;2.00;;;;;;;;5042770;28;46851;-93
2021/10/01 02:08:14;;;;;;;;;2.75;1.00;;;;;;;;5022433;28;45434;-93
2021/10/01 02:10:40;;;;;;;;;1.00;1.00;;;;;;;;5035796;28;45379;-94
2021/10/01 02:13:08;;;;;;;;;5.50;1.00;;;;;;;;5042022;28;45315;-93
2021/10/01 02:15:34;;;;;;;;;1.25;1.25;;;;;;;;5046273;28;47123;-93
2021/10/01 02:18:00;;;;;;;;;1.75;1.00;;;;;;;;5049080;28;45768;-93
2021/10/01 02:20:26;;;;;;;;;1.00;1.00;;;;;;;;5048535;28;45291;-92
2021/10/01 02:22:52;;;;;;;;;1.50;1.00;;;;;;;;5046064;28;44896;-91
2021/10/01 02:28:04;;;;;;;;;1.00;1.00;;;;;;;;5046180;28;45515;-93
2021/10/01 02:30:31;;;;;;;;;3.00;1.00;;;;;;;;5045483;28;45360;-93
2021/10/01 02:32:59;;;;;;;;;1.00;1.00;;;;;;;;5042505;28;45441;-92
2021/10/01 02:35:25;;;;;;;;;1.00;1.00;;;;;;;;5041668;28;47405;-93
2021/10/01 02:37:50;;;;;;;;;3.00;1.00;;;;;;;;5041213;28;45305;-93
2021/10/01 02:40:16;;;;;;;;;2.00;1.00;;;;;;;;5041066;28;45376;-93
2021/10/01 02:42:41;;;;;;;;;1.00;1.00;;;;;;;;5040163;28;45407;-93
2021/10/01 02:45:07;;;;;;;;;1.50;1.00;;;;;;;;5041441;28;47764;-93
2021/10/01 02:47:34;;;;;;;;;5.25;2.00;;;;;;;;5041979;28;45604;-93
2021/10/01 02:50:00;;;;;;;;;1.25;1.00;;;;;;;;5041184;28;45561;-92
2021/10/01 02:52:40;;;;;;;;;1.00;1.00;;;;;;;;5041324;28;45527;-93
2021/10/01 02:55:09;;;;;;;;;1.00;1.00;;;;;;;;5041919;28;47341;-93
2021/10/01 02:57:51;;;;;;;;;1.00;1.00;;;;;;;;5045923;28;46322;-93
2021/10/01 03:00:16;;;;;;;;;3.75;1.00;;;;;;;;5045251;28;45289;-92
2021/10/01 03:02:43;;;;;;;;;2.00;2.00;;;;;;;;5045205;28;45315;-91
2021/10/01 03:05:11;;;;;;;;;2.00;2.00;;;;;;;;5044142;28;46993;-92
2021/10/01 03:07:36;;;;;;;;;1.50;1.50;;;;;;;;5041631;28;45218;-92
2021/10/01 03:10:04;;;;;;;;;1.00;1.00;;;;;;;;5040924;28;45299;-92
2021/10/01 03:12:30;;;;;;;;;2.75;1.00;;;;;;;;5041746;28;45530;-93
2021/10/01 03:14:56;;;;;;;;;2.75;2.00;;;;;;;;5040169;28;47542;-93
2021/10/01 03:17:21;;;;;;;;;2.00;2.00;;;;;;;;5040665;28;45355;-93
2021/10/01 03:19:48;;;;;;;;;1.25;1.25;;;;;;;;5041155;28;45406;-94
2021/10/01 03:22:15;;;;;;;;;2.50;1.00;;;;;;;;5041304;28;45737;-94
2021/10/01 03:24:41;;;;;;;;;1.00;1.00;;;;;;;;5043078;28;46870;-93
2021/10/01 03:27:06;;;;;;;;;2.50;2.00;;;;;;;;5044488;28;44717;-94
2021/10/01 03:29:32;;;;;;;;;3.50;2.00;;;;;;;;5042618;28;45616;-94
2021/10/01 03:31:57;;;;;;;;;1.75;1.50;;;;;;;;5033057;28;45502;-92
2021/10/01 03:34:23;;;;;;;;;3.00;1.00;;;;;;;;5042008;28;47052;-93
2021/10/01 03:36:48;;;;;;;;;2.75;1.75;;;;;;;;5041368;28;45880;-95
2021/10/01 03:39:13;;;;;;;;;3.50;1.75;;;;;;;;5045473;28;45117;-93
2021/10/01 03:41:39;;;;;;;;;2.00;2.00;;;;;;;;5045273;28;45222;-94
2021/10/01 03:44:04;;;;;;;;;3.00;2.00;;;;;;;;5044801;28;48402;-94
2021/10/01 03:46:29;;;;;;;;;3.50;1.50;;;;;;;;5044874;28;45316;-93
2021/10/01 03:48:54;;;;;;;;;5.00;3.00;;;;;;;;5045501;28;45487;-94
2021/10/01 03:51:23;;;;;;;;;3.75;1.00;;;;;;;;5042716;28;45459;-93
2021/10/01 03:53:48;;;;;;;;;2.75;2.00;;;;;;;;5042154;28;47016;-93
2021/10/01 03:56:16;;;;;;;;;1.00;1.00;;;;;;;;5043931;28;45427;-93
2021/10/01 03:58:48;;;;;;;;;2.00;2.00;;;;;;;;5044637;28;44696;-94
2021/10/01 04:01:14;;;;;;;;;4.00;1.00;;;;;;;;5044410;28;45729;-94
2021/10/01 04:03:39;;;;;;;;;2.25;1.75;;;;;;;;5043672;28;46919;-94
2021/10/01 04:06:05;;;;;;;;;2.00;2.00;;;;;;;;5043488;28;45319;-93
2021/10/01 04:08:30;;;;;;;;;3.50;2.00;;;;;;;;5043605;28;45228;-93
2021/10/01 04:10:55;;;;;;;;;2.50;1.50;;;;;;;;5045171;28;45598;-95
2021/10/01 04:13:20;;;;;;;;;1.75;1.75;;;;;;;;5046337;28;46891;-94
2021/10/01 04:15:46;;;;;;;;;4.00;3.00;;;;;;;;5044397;28;45253;-95
2021/10/01 04:18:11;;;;;;;;;5.75;2.00;;;;;;;;5044246;28;45243;-94
2021/10/01 04:20:39;;;;;;;;;6.00;1.50;;;;;;;;5047010;28;45678;-95
2021/10/01 04:23:04;;;;;;;;;1.00;1.00;;;;;;;;5048752;28;48219;-94
2021/10/01 04:25:31;;;;;;;;;3.00;2.00;;;;;;;;5047536;28;45436;-93
2021/10/01 04:27:56;;;;;;;;;1.75;1.75;;;;;;;;5045941;28;45355;-93
2021/10/01 04:30:22;;;;;;;;;3.67;2.33;;;;;;;;5043454;28;45478;-93
2021/10/01 04:32:57;;;;;;;;;3.00;2.50;;;;;;;;5048965;28;47683;-93
2021/10/01 04:35:22;;;;;;;;;3.75;2.00;;;;;;;;5047160;28;45801;-93
2021/10/01 04:37:48;;;;;;;;;2.00;2.00;;;;;;;;5047284;28;45486;-93
2021/10/01 04:40:13;;;;;;;;;2.67;2.67;;;;;;;;5046998;28;45416;-94
2021/10/01 04:42:38;;;;;;;;;2.50;2.25;;;;;;;;5047688;28;47016;-94
2021/10/01 04:45:04;;;;;;;;;2.00;2.00;;;;;;;;5048759;28;45225;-92
2021/10/01 04:47:29;;;;;;;;;3.25;2.00;;;;;;;;5027995;28;45329;-94
2021/10/01 04:49:54;;;;;;;;;4.00;2.00;;;;;;;;5040586;28;45951;-96
2021/10/01 04:52:19;;;;;;;;;3.00;3.00;;;;;;;;5044574;28;46966;-95
2021/10/01 04:54:45;;;;;;;;;7.00;4.00;;;;;;;;5043389;28;45194;-94
2021/10/01 04:57:10;;;;;;;;;3.00;2.00;;;;;;;;5043096;28;45233;-95
2021/10/01 04:59:35;;;;;;;;;4.00;2.75;;;;;;;;5046153;28;45502;-95
2021/10/01 05:02:01;;;;;;;;;2.50;2.50;;;;;;;;5047442;28;48345;-94
2021/10/01 05:04:26;;;;;;;;;1.50;1.50;;;;;;;;5047012;28;45718;-93
2021/10/01 05:06:51;;;;;;;;;3.00;3.00;;;;;;;;5048072;28;45240;-94
2021/10/01 05:09:16;;;;;;;;;3.75;2.50;;;;;;;;5047592;28;45238;-95
2021/10/01 05:11:42;;;;;;;;;3.25;2.00;;;;;;;;5040695;28;48449;-93
2021/10/01 05:14:07;;;;;;;;;1.50;1.50;;;;;;;;5050278;28;45419;-93
2021/10/01 05:16:32;;;;;;;;;2.75;2.75;;;;;;;;5040648;28;44729;-93
2021/10/01 05:18:57;;;;;;;;;2.00;2.00;;;;;;;;5029151;28;44846;-93
2021/10/01 05:21:23;;;;;;;;;4.00;3.00;;;;;;;;5046691;28;48414;-93
2021/10/01 05:23:48;;;;;;;;;3.25;2.00;;;;;;;;5049143;28;45359;-88
2021/10/01 05:26:13;;;;;;;;;5.67;2.00;;;;;;;;5044480;28;45432;-86
2021/10/01 05:28:39;;;;;;;;;4.00;2.00;;;;;;;;5043054;28;45418;-84
2021/10/01 05:31:07;;;;;;;;;4.00;1.00;;;;;;;;5044778;28;45900;-87
2021/10/01 05:33:32;;;;;;;;;8.00;1.25;;;;;;;;5044414;28;45642;-88
2021/10/01 05:35:57;;;;;;;;;3.00;1.00;;;;;;;;5040782;28;45486;-85
2021/10/01 05:38:24;;;;;;;;;2.00;2.00;;;;;;;;5042710;28;45296;-89
2021/10/01 05:40:49;;;;;;;;;2.00;2.00;;;;;;;;5043359;28;47257;-85
2021/10/01 05:43:16;;;;;;;;;3.00;3.00;;;;;;;;5044919;28;45789;-89
2021/10/01 05:45:41;;;;;;;;;3.00;2.00;;;;;;;;5043437;28;45315;-85
2021/10/01 05:48:06;;;;;;;;;4.50;3.00;;;;;;;;5056902;28;45746;-87
2021/10/01 05:50:34;;;;;;;;;2.00;2.00;;;;;;;;5064106;28;45487;-91
2021/10/01 05:53:02;;;;;;;;;2.75;2.00;;;;;;;;5060175;28;45721;-89
2021/10/01 05:55:28;;;;;;;;;2.25;2.25;;;;;;;;5064556;28;44800;-89
2021/10/01 05:57:53;;;;;;;;;5.00;2.50;;;;;;;;5064624;28;44725;-88
2021/10/01 06:00:19;;;;;;;;;2.33;2.33;;;;;;;;5058525;28;45402;-87
2021/10/01 06:02:44;;;;;;;;;2.50;2.50;;;;;;;;5055374;28;46037;-86
2021/10/01 06:05:10;;;;;;;;;3.25;3.00;;;;;;;;5044877;28;45470;-87
2021/10/01 06:07:35;;;;;;;;;2.00;2.00;;;;;;;;5042501;28;45447;-90
2021/10/01 06:10:01;;;;;;;;;6.00;2.50;;;;;;;;5039780;28;47185;-87
2021/10/01 06:12:26;;;;;;;;;4.25;1.50;;;;;;;;5038968;28;45765;-88
2021/10/01 06:14:52;;;;;;;;;2.00;2.00;;;;;;;;5043342;28;45569;-85
2021/10/01 06:17:17;;;;;;;;;2.00;2.00;;;;;;;;5040611;28;45338;-89
2021/10/01 06:19:43;;;;;;;;;4.00;2.00;;;;;;;;5041549;28;45470;-88
2021/10/01 06:22:10;;;;;;;;;8.00;4.00;;;;;;;;5041251;28;45574;-88
2021/10/01 06:24:36;;;;;;;;;3.00;3.00;;;;;;;;5042127;28;45424;-88
2021/10/01 06:27:01;;;;;;;;;4.75;2.00;;;;;;;;5043171;28;45462;-88
2021/10/01 06:29:26;;;;;;;;;6.00;3.50;;;;;;;;5038093;28;47153;-89
2021/10/01 06:31:52;;;;;;;;;2.00;2.00;;;;;;;;5040099;28;45543;-89
2021/10/01 06:34:17;;;;;;;;;7.25;4.00;;;;;;;;5041174;28;45228;-85
2021/10/01 06:36:42;;;;;;;;;2.75;2.75;;;;;;;;5041443;28;45462;-91
2021/10/01 06:39:08;;;;;;;;;5.25;3.00;;;;;;;;5039701;28;47872;-89
2021/10/01 06:41:33;;;;;;;;;4.50;3.00;;;;;;;;5039863;28;45984;-87
2021/10/01 06:44:01;;;;;;;;;3.75;2.00;;;;;;;;5040491;28;45497;-87
2021/10/01 06:46:50;;;;;;;;;3.75;3.25;;;;;;;;5039569;28;45273;-86
2021/10/01 06:52:45;;;;;;;;;5.25;3.00;;;;;;;;5039761;28;45484;-86
2021/10/01 07:35:51;;;;;;;;;5.25;3.00;;;;;;;;5040195;28;45264;-87
2021/10/01 08:19:19;;;;;;;;;4.00;3.00;;;;;;;;5040342;28;45224;-87
2021/10/01 08:21:45;;;;;;;;;5.50;3.00;;;;;;;;5039005;28;45474;-87
2021/10/01 08:24:10;;;;;;;;;3.00;3.00;;;;;;;;5039105;28;45931;-88
2021/10/01 08:26:35;;;;;;;;;5.25;3.00;;;;;;;;5041491;28;46316;-88
2021/10/01 08:29:00;;;;;;;;;4.50;2.00;;;;;;;;5042746;28;45334;-88
2021/10/01 08:31:27;;;;;;;;;4.00;2.00;;;;;;;;5044516;28;45337;-88
2021/10/01 08:33:52;;;;;;;;;4.25;3.50;;;;;;;;5042890;28;45314;-88
2021/10/01 08:36:18;;;;;;;;;4.00;3.33;;;;;;;;5040496;28;47220;-88
2021/10/01 08:38:44;;;;;;;;;3.00;2.00;;;;;;;;5040722;28;45267;-87
2021/10/01 08:41:11;;;;;;;;;11.00;7.75;;;;;;;;5043990;28;45176;-88
2021/10/01 08:43:37;;;;;;;;;7.25;4.00;;;;;;;;5042974;28;45248;-87
2021/10/01 08:46:04;;;;;;;;;5.25;3.50;;;;;;;;5043009;28;47230;-88
2021/10/01 08:48:30;;;;;;;;;4.00;3.00;;;;;;;;5043334;28;45375;-87
2021/10/01 08:50:56;;;;;;;;;4.50;3.25;;;;;;;;5043233;28;45329;-88
2021/10/01 08:53:21;;;;;;;;;6.00;2.50;;;;;;;;5043409;28;45313;-87
2021/10/01 08:55:47;;;;;;;;;2.25;1.50;;;;;;;;5048019;28;48353;-87
2021/10/01 08:58:13;;;;;;;;;4.00;2.25;;;;;;;;5046396;28;45260;-88
2021/10/01 09:00:38;;;;;;;;;7.00;3.00;;;;;;;;5042465;28;45481;-87
2021/10/01 09:03:03;;;;;;;;;3.00;3.00;;;;;;;;5041845;28;45752;-89
2021/10/01 09:05:29;;;;;;;;;4.33;3.00;;;;;;;;5044131;28;45272;-87
2021/10/01 09:07:54;;;;;;;;;2.50;2.00;;;;;;;;5044191;28;45406;-87
2021/10/01 09:10:20;;;;;;;;;1.00;1.00;;;;;;;;5046884;28;45308;-87
2021/10/01 09:12:49;;;;;;;;;4.00;1.75;;;;;;;;5044264;28;45582;-87
2021/10/01 09:15:15;;;;;;;;;5.50;3.00;;;;;;;;5044877;28;45547;-87
2021/10/01 09:17:45;;;;;;;;;5.67;4.00;;;;;;;;5043592;28;45367;-87
2021/10/01 09:20:13;;;;;;;;;3.25;2.00;;;;;;;;5042202;28;45319;-86
2021/10/01 09:22:38;;;;;;;;;5.00;2.00;;;;;;;;5043050;28;45529;-87
2021/10/01 09:25:08;;;;;;;;;7.00;4.25;;;;;;;;5043497;28;45351;-88
2021/10/01 09:27:38;;;;;;;;;5.75;5.50;;;;;;;;5042358;28;45939;-87
2021/10/01 09:30:04;;;;;;;;;3.00;3.00;;;;;;;;5042374;28;45356;-87
2021/10/01 09:32:29;;;;;;;;;5.00;3.50;;;;;;;;5043313;28;45246;-88
2021/10/01 09:34:54;;;;;;;;;7.50;4.00;;;;;;;;5042111;28;47331;-87
2021/10/01 09:37:22;;;;;;;;;3.00;3.00;;;;;;;;5043418;28;45566;-87
2021/10/01 09:39:51;;;;;;;;;4.00;3.25;;;;;;;;5042494;28;45454;-87
2021/10/01 09:42:21;;;;;;;;;3.50;3.50;;;;;;;;5030800;28;45245;-87
2021/10/01 09:44:57;;;;;;;;;8.00;5.00;;;;;;;;5046786;28;46214;-88
2021/10/01 09:47:25;;;;;;;;;3.50;2.50;;;;;;;;5045626;28;45249;-87
2021/10/01 09:49:57;;;;;;;;;5.75;4.00;;;;;;;;5058403;28;45287;-87
2021/10/01 09:52:22;;;;;;;;;6.00;3.75;;;;;;;;5046218;28;45307;-87
2021/10/01 09:54:47;;;;;;;;;3.50;3.50;;;;;;;;5045833;28;48501;-87
2021/10/01 09:57:13;;;;;;;;;4.00;2.25;;;;;;;;5063634;28;45384;-87
2021/10/01 09:59:39;;;;;;;;;4.25;2.50;;;;;;;;5062593;28;45413;-87
2021/10/01 10:02:06;;;;;;;;;3.00;3.00;;;;;;;;5047327;28;45284;-87
2021/10/01 10:04:37;;;;;;;;;3.00;3.00;;;;;;;;5043413;28;47048;-87
2021/10/01 10:07:09;;;;;;;;;3.75;3.75;;;;;;;;5042920;28;45535;-88
2021/10/01 10:09:39;;;;;;;;;7.75;5.75;;;;;;;;5042336;28;45225;-87
2021/10/01 10:12:04;;;;;;;;;5.25;2.50;;;;;;;;5058782;28;44852;-87
2021/10/01 10:14:40;;;;;;;;;3.00;3.00;;;;;;;;5073692;28;46941;-88
2021/10/01 10:17:13;;;;;;;;;3.25;3.00;;;;;;;;5061721;28;45277;-87
2021/10/01 10:19:38;;;;;;;;;5.25;3.50;;;;;;;;5063588;28;44729;-88
2021/10/01 10:22:03;;;;;;;;;5.00;2.25;;;;;;;;5057432;28;45394;-88
2021/10/01 10:24:28;;;;;;;;;4.00;2.33;;;;;;;;5052496;28;47224;-88
2021/10/01 10:26:57;;;;;;;;;2.00;2.00;;;;;;;;5041316;28;45977;-87
2021/10/01 10:29:23;;;;;;;;;2.00;2.00;;;;;;;;5043900;28;45377;-88
2021/10/01 10:31:48;;;;;;;;;3.75;1.75;;;;;;;;5042311;28;45232;-87
2021/10/01 10:34:18;;;;;;;;;2.00;2.00;;;;;;;;5043495;28;47426;-87
2021/10/01 10:36:45;;;;;;;;;4.25;3.25;;;;;;;;5045214;28;45327;-87
2021/10/01 10:39:10;;;;;;;;;5.00;4.00;;;;;;;;5042313;28;45224;-88
2021/10/01 10:41:36;;;;;;;;;5.00;5.00;;;;;;;;5041333;28;45157;-88
2021/10/01 10:44:01;;;;;;;;;2.75;2.75;;;;;;;;5041123;28;45388;-87
2021/10/01 10:46:35;;;;;;;;;5.75;4.00;;;;;;;;5039386;28;45163;-87
2021/10/01 10:49:20;;;;;;;;;3.25;2.00;;;;;;;;5036557;28;45558;-87
2021/10/01 10:51:51;;;;;;;;;4.50;3.00;;;;;;;;5033799;28;45377;-88
2021/10/01 10:54:18;;;;;;;;;3.00;3.00;;;;;;;;5041075;28;45513;-88
2021/10/01 10:56:43;;;;;;;;;4.00;2.75;;;;;;;;5052012;28;45798;-88
2021/10/01 10:59:27;;;;;;;;;3.00;3.00;;;;;;;;5041666;28;45445;-88
2021/10/01 11:02:12;;;;;;;;;8.00;2.00;;;;;;;;5039418;28;45491;-88
2021/10/01 11:04:38;;;;;;;;;4.00;2.75;;;;;;;;5040519;28;46275;-87
2021/10/01 11:07:04;;;;;;;;;3.00;3.00;;;;;;;;5040893;28;45407;-87
2021/10/01 11:09:30;;;;;;;;;3.00;3.00;;;;;;;;5041133;28;45409;-88
2021/10/01 11:11:58;;;;;;;;;2.00;2.00;;;;;;;;5040075;28;45643;-88
2021/10/01 11:14:29;;;;;;;;;4.25;3.75;;;;;;;;5051004;28;47151;-87
2021/10/01 11:16:54;;;;;;;;;4.25;2.00;;;;;;;;5044140;28;45511;-86
2021/10/01 11:19:39;;;;;;;;;5.00;3.00;;;;;;;;5049027;28;45294;-89
2021/10/01 11:22:23;;;;;;;;;6.25;2.50;;;;;;;;5047567;28;45321;-88
2021/10/01 11:24:49;;;;;;;;;1.75;1.25;;;;;;;;5047440;28;45366;-88
2021/10/01 11:27:14;;;;;;;;;1.00;0.50;;;;;;;;5045590;28;45375;-89
2021/10/01 11:29:39;;;;;;;;;2.00;2.00;;;;;;;;5040973;28;45296;-88
2021/10/01 11:32:16;;;;;;;;;2.50;2.50;;;;;;;;5030979;28;45273;-87
2021/10/01 11:34:52;;;;;;;;;3.50;1.75;;;;;;;;5039718;28;47306;-88
2021/10/01 11:37:49;;;;;;;;;5.00;2.00;;;;;;;;5042847;28;45261;-87
2021/10/01 11:40:24;;;;;;;;;6.00;3.50;;;;;;;;5033474;28;45242;-87
2021/10/01 11:42:52;;;;;;;;;1.00;1.00;;;;;;;;5039519;28;45615;-87
2021/10/01 11:45:19;;;;;;;;;2.75;2.00;;;;;;;;5042376;28;45473;-86
2021/10/01 11:47:56;;;;;;;;;1.75;0.75;;;;;;;;5043844;28;45302;-88
2021/10/01 11:50:27;;;;;;;;;2.00;1.75;;;;;;;;5026010;28;45258;-89
2021/10/01 11:52:54;;;;;;;;;6.25;3.25;;;;;;;;5033352;28;45469;-89
2021/10/01 11:55:19;;;;;;;;;2.50;2.00;;;;;;;;5040607;28;47058;-88
2021/10/01 11:57:46;;;;;;;;;2.75;1.00;;;;;;;;5046831;28;45499;-90
2021/10/01 12:00:13;;;;;;;;;2.00;1.00;;;;;;;;5044765;28;45398;-93
2021/10/01 12:02:42;;;;;;;;;4.00;1.00;;;;;;;;5045494;28;45196;-90
2021/10/01 12:05:24;;;;;;;;;1.75;1.75;;;;;;;;5044114;28;47098;-92
2021/10/01 12:07:51;;;;;;;;;5.25;0.75;;;;;;;;5043494;28;45492;-91
2021/10/01 12:10:16;;;;;;;;;4.00;2.00;;;;;;;;5045061;28;45315;-91
2021/10/01 12:13:00;;;;;;;;;2.00;2.00;;;;;;;;5043279;28;45502;-90
2021/10/01 12:15:38;;;;;;;;;2.00;1.00;;;;;;;;5045556;28;46155;-89
2021/10/01 12:18:04;;;;;;;;;1.00;1.00;;;;;;;;5046344;28;45785;-89
2021/10/01 12:20:42;;;;;;;;;0.00;0.00;;;;;;;;5045674;28;45368;-89
2021/10/01 12:23:17;;;;;;;;;2.00;1.00;;;;;;;;5044659;28;45272;-90
2021/10/01 12:25:43;;;;;;;;;2.00;1.00;;;;;;;;5039246;28;48208;-90
2021/10/01 12:28:09;;;;;;;;;1.00;1.00;;;;;;;;5042811;28;45410;-90
2021/10/01 12:30:34;;;;;;;;;3.50;1.00;;;;;;;;5040463;28;45205;-90
2021/10/01 12:32:59;;;;;;;;;1.25;0.75;;;;;;;;5031007;28;45237;-89
2021/10/01 12:35:25;;;;;;;;;4.00;1.25;;;;;;;;5042843;28;46470;-89
2021/10/01 12:37:50;;;;;;;;;1.25;1.25;;;;;;;;5042840;28;45472;-88
2021/10/01 12:40:15;;;;;;;;;3.75;2.00;;;;;;;;5035936;28;45469;-90
2021/10/01 12:42:40;;;;;;;;;3.00;2.00;;;;;;;;5045262;28;45808;-88
2021/10/01 12:45:06;;;;;;;;;1.50;1.25;;;;;;;;5045677;28;48014;-89
2021/10/01 12:47:32;;;;;;;;;4.00;2.00;;;;;;;;5043598;28;45464;-89
2021/10/01 12:50:14;;;;;;;;;3.75;1.00;;;;;;;;5042149;28;45372;-91
2021/10/01 12:52:43;;;;;;;;;5.00;2.00;;;;;;;;5042719;28;45371;-87
2021/10/01 12:55:10;;;;;;;;;2.50;1.00;;;;;;;;5041826;28;47191;-88
2021/10/01 12:57:36;;;;;;;;;2.00;1.00;;;;;;;;5047053;28;45378;-86
2021/10/01 13:00:01;;;;;;;;;1.25;1.25;;;;;;;;5042657;28;45356;-87
2021/10/01 13:02:35;;;;;;;;;1.33;1.33;;;;;;;;5042563;28;45289;-86
2021/10/01 13:05:02;;;;;;;;;2.25;1.00;;;;;;;;5041077;28;47404;-87
2021/10/01 13:07:28;;;;;;;;;1.25;1.00;;;;;;;;5042221;28;45770;-87
2021/10/01 13:09:54;;;;;;;;;1.33;0.00;;;;;;;;5041629;28;45386;-86
2021/10/01 13:12:29;;;;;;;;;4.75;1.00;;;;;;;;5042132;28;45284;-86
2021/10/01 13:15:07;;;;;;;;;3.00;0.00;;;;;;;;5053754;28;45329;-87
2021/10/01 13:17:32;;;;;;;;;1.25;1.00;;;;;;;;5041252;28;45315;-87
2021/10/01 13:19:58;;;;;;;;;3.00;2.00;;;;;;;;5043640;28;45394;-81
2021/10/01 13:22:23;;;;;;;;;1.25;1.00;;;;;;;;5044369;28;45342;-82
2021/10/01 13:24:54;;;;;;;;;2.00;0.00;;;;;;;;5042703;28;45996;-81
2021/10/01 13:27:21;;;;;;;;;2.00;2.00;;;;;;;;5040393;28;45494;-82
2021/10/01 13:29:46;;;;;;;;;2.50;1.75;;;;;;;;5040719;28;45383;-81
2021/10/01 13:32:12;;;;;;;;;3.33;1.67;;;;;;;;5040738;28;45676;-82
2021/10/01 13:34:38;;;;;;;;;2.75;0.75;;;;;;;;5043083;28;46198;-81
2021/10/01 13:37:03;;;;;;;;;0.75;0.75;;;;;;;;5045425;28;45323;-81
2021/10/01 13:39:28;;;;;;;;;2.25;0.75;;;;;;;;5058815;28;30706;-81
2021/10/01 13:41:53;;;;;;;;;2.00;1.67;;;;;;;;5042722;28;45479;-81
2021/10/01 13:44:19;;;;;;;;;2.00;1.67;;;;;;;;5041541;28;45442;-81
2021/10/01 13:46:44;;;;;;;;;1.00;1.00;;;;;;;;5041386;28;45367;-81
2021/10/01 13:49:10;;;;;;;;;2.25;1.00;;;;;;;;5040142;28;45524;-81
2021/10/01 13:51:35;;;;;;;;;1.75;1.50;;;;;;;;5040055;28;45301;-81
2021/10/01 13:54:00;;;;;;;;;1.75;1.25;;;;;;;;5041254;28;45322;-81
2021/10/01 13:56:26;;;;;;;;;1.75;1.75;;;;;;;;5046153;28;45398;-81
2021/10/01 13:58:51;;;;;;;;;0.67;0.67;;;;;;;;5041880;28;45215;-81
2021/10/01 14:01:16;;;;;;;;;3.00;1.75;;;;;;;;5041406;28;45226;-81
2021/10/01 14:03:42;;;;;;;;;1.00;1.00;;;;;;;;5041267;28;46281;-81
2021/10/01 14:06:07;;;;;;;;;3.33;2.33;;;;;;;;5041550;28;45297;-81
2021/10/01 14:08:32;;;;;;;;;2.50;1.25;;;;;;;;5044231;28;45308;-81
2021/10/01 14:10:57;;;;;;;;;6.00;0.50;;;;;;;;5046372;28;45217;-82
2021/10/01 14:13:22;;;;;;;;;2.25;1.00;;;;;;;;5044254;28;46162;-82
2021/10/01 14:15:49;;;;;;;;;1.67;1.67;;;;;;;;5042942;28;45273;-81
2021/10/01 14:18:15;;;;;;;;;2.50;1.50;;;;;;;;5041786;28;45296;-81
2021/10/01 14:20:40;;;;;;;;;1.25;0.50;;;;;;;;5041800;28;45220;-81
2021/10/01 14:23:06;;;;;;;;;2.00;2.00;;;;;;;;5041547;28;48447;-81
2021/10/01 14:25:32;;;;;;;;;4.00;1.75;;;;;;;;5043687;28;45390;-81
2021/10/01 14:27:57;;;;;;;;;3.50;0.50;;;;;;;;5042619;28;45398;-81
2021/10/01 14:30:24;;;;;;;;;0.50;0.50;;;;;;;;5049440;28;45482;-81
2021/10/01 14:32:49;;;;;;;;;1.75;0.75;;;;;;;;5054773;28;47176;-82
2021/10/01 14:35:16;;;;;;;;;1.25;1.00;;;;;;;;5055216;28;44872;-81
2021/10/01 14:37:41;;;;;;;;;1.75;1.50;;;;;;;;5048422;28;45149;-81
2021/10/01 14:40:08;;;;;;;;;2.25;2.00;;;;;;;;5039683;28;45189;-81
2021/10/01 14:42:33;;;;;;;;;2.50;1.50;;;;;;;;5040872;28;45523;-81
2021/10/01 14:44:58;;;;;;;;;1.75;1.00;;;;;;;;5040784;28;45240;-81
2021/10/01 14:47:29;;;;;;;;;2.00;1.00;;;;;;;;5041281;28;45217;-81
2021/10/01 14:49:55;;;;;;;;;3.50;2.00;;;;;;;;5040882;28;45571;-81
2021/10/01 14:52:21;;;;;;;;;2.00;2.00;;;;;;;;5045027;28;46124;-90
2021/10/01 14:54:46;;;;;;;;;3.00;1.75;;;;;;;;5043356;28;45190;-89
2021/10/01 14:57:12;;;;;;;;;5.00;2.00;;;;;;;;5051050;28;45661;-92
2021/10/01 14:59:37;;;;;;;;;1.00;1.00;;;;;;;;5044437;28;45150;-90
2021/10/01 15:02:02;;;;;;;;;2.67;2.67;;;;;;;;5041531;28;45403;-83
2021/10/01 15:04:27;;;;;;;;;2.50;2.25;;;;;;;;5040130;28;45386;-83
2021/10/01 15:06:53;;;;;;;;;7.00;4.25;;;;;;;;5039105;28;45305;-84
2021/10/01 15:09:18;;;;;;;;;2.75;2.00;;;;;;;;5040310;28;45260;-84
2021/10/01 15:11:43;;;;;;;;;2.00;2.00;;;;;;;;5039961;28;47092;-83
2021/10/01 15:14:09;;;;;;;;;3.25;2.00;;;;;;;;5042099;28;45200;-83
2021/10/01 15:16:34;;;;;;;;;2.67;2.67;;;;;;;;5041868;28;45279;-82
2021/10/01 15:18:59;;;;;;;;;4.00;3.00;;;;;;;;5040790;28;45227;-83
2021/10/01 15:21:25;;;;;;;;;2.00;2.00;;;;;;;;5046322;28;46248;-84
2021/10/01 15:23:50;;;;;;;;;2.00;2.00;;;;;;;;5042322;28;45347;-83
2021/10/01 15:26:16;;;;;;;;;4.50;1.25;;;;;;;;5040676;28;45673;-83
2021/10/01 15:28:42;;;;;;;;;7.00;2.00;;;;;;;;5044662;28;45394;-83
2021/10/01 15:31:07;;;;;;;;;2.00;2.00;;;;;;;;5043307;28;46999;-83
2021/10/01 15:33:33;;;;;;;;;3.00;3.00;;;;;;;;5045241;28;45406;-83
2021/10/01 15:35:59;;;;;;;;;5.00;3.00;;;;;;;;5045442;28;46867;-83
2021/10/01 15:38:25;;;;;;;;;3.25;2.25;;;;;;;;5044598;28;45522;-83
2021/10/01 15:40:51;;;;;;;;;2.00;2.00;;;;;;;;5042231;28;45490;-83
2021/10/01 15:43:22;;;;;;;;;4.25;4.00;;;;;;;;5049801;28;44961;-83
2021/10/01 15:45:49;;;;;;;;;5.50;3.75;;;;;;;;5051623;28;45386;-83
2021/10/01 15:48:15;;;;;;;;;5.75;3.75;;;;;;;;5046204;28;45868;-83
2021/10/01 15:50:40;;;;;;;;;8.25;5.50;;;;;;;;5047123;28;48077;-84
2021/10/01 15:53:06;;;;;;;;;9.25;5.00;;;;;;;;5044189;28;45374;-84
2021/10/01 15:55:32;;;;;;;;;6.00;5.00;;;;;;;;5045572;28;45568;-84
2021/10/01 15:57:58;;;;;;;;;4.25;4.25;;;;;;;;5044146;28;45253;-84
2021/10/01 16:00:24;;;;;;;;;4.25;4.00;;;;;;;;5049784;28;45205;-85
2021/10/01 16:02:54;;;;;;;;;5.50;3.50;;;;;;;;5058216;28;45975;-85
2021/10/01 16:05:21;;;;;;;;;4.50;4.50;;;;;;;;5045464;28;44651;-84
2021/10/01 16:07:48;;;;;;;;;3.50;3.50;;;;;;;;5047063;28;45294;-83
2021/10/01 16:10:13;;;;;;;;;4.50;2.75;;;;;;;;5049456;28;45229;-85
2021/10/01 16:12:40;;;;;;;;;7.75;5.00;;;;;;;;5048014;28;45260;-83